createdAt,value
2019-02-19T00:02:15.924Z,7.20
2019-02-19T00:04:44.518Z,7.30
2019-02-19T00:07:13.077Z,7.30
2019-02-19T00:09:41.662Z,7.40
2019-02-19T00:12:10.312Z,7.40
2019-02-19T00:14:38.893Z,7.40
2019-02-19T00:17:07.488Z,7.30
2019-02-19T00:19:36.046Z,7.10
2019-02-19T00:22:05.973Z,6.90
2019-02-19T00:24:34.562Z,6.80
2019-02-19T00:27:03.184Z,6.70
2019-02-19T00:29:31.737Z,6.60
2019-02-19T00:32:00.622Z,6.60
2019-02-19T00:34:29.183Z,6.50
2019-02-19T00:36:57.834Z,6.40
2019-02-19T00:39:26.469Z,6.20
2019-02-19T00:41:55.095Z,5.90
2019-02-19T00:44:23.661Z,5.80
2019-02-19T00:46:52.211Z,5.60
2019-02-19T00:49:20.853Z,5.50
2019-02-19T00:51:49.414Z,5.60
2019-02-19T00:54:17.989Z,5.50
2019-02-19T00:56:46.548Z,5.70
2019-02-19T00:59:15.172Z,5.80
2019-02-19T01:01:43.738Z,6.10
2019-02-19T01:04:12.386Z,6.30
2019-02-19T01:06:40.945Z,6.20
2019-02-19T01:09:09.961Z,6.00
2019-02-19T01:11:38.590Z,6.00
2019-02-19T01:14:07.265Z,5.80
2019-02-19T01:16:36.585Z,5.70
2019-02-19T01:19:05.528Z,5.80
2019-02-19T01:21:34.100Z,5.80
2019-02-19T01:24:02.656Z,5.60
2019-02-19T01:26:31.233Z,5.50
2019-02-19T01:28:59.860Z,5.40
2019-02-19T01:31:28.460Z,5.40
2019-02-19T01:33:57.003Z,5.50
2019-02-19T01:36:25.587Z,5.60
2019-02-19T01:38:54.235Z,5.70
2019-02-19T01:41:23.673Z,5.70
2019-02-19T01:43:52.228Z,5.70
2019-02-19T01:46:20.834Z,5.80
2019-02-19T01:48:49.360Z,5.80
2019-02-19T01:51:17.920Z,5.80
2019-02-19T01:53:46.493Z,5.70
2019-02-19T01:56:15.044Z,5.70
2019-02-19T01:58:43.620Z,5.80
2019-02-19T02:01:12.180Z,6.00
2019-02-19T02:03:40.761Z,6.00
2019-02-19T02:06:09.317Z,5.50
2019-02-19T02:08:38.336Z,5.30
2019-02-19T02:11:06.958Z,4.90
2019-02-19T02:13:35.533Z,4.70
2019-02-19T02:16:04.088Z,4.80
2019-02-19T02:18:32.952Z,4.80
2019-02-19T02:21:01.500Z,5.00
2019-02-19T02:23:30.124Z,5.20
2019-02-19T02:25:58.705Z,5.30
2019-02-19T02:28:27.257Z,5.50
2019-02-19T02:30:55.832Z,5.60
2019-02-19T02:33:24.392Z,5.70
2019-02-19T02:35:52.976Z,5.80
2019-02-19T02:38:21.537Z,5.90
2019-02-19T02:40:50.680Z,6.00
2019-02-19T02:43:19.345Z,6.00
2019-02-19T02:45:53.552Z,6.10
2019-02-19T02:48:18.240Z,6.10
2019-02-19T02:50:46.897Z,6.10
2019-02-19T02:53:15.464Z,6.30
2019-02-19T02:55:44.029Z,6.30
2019-02-19T02:58:12.605Z,6.30
2019-02-19T03:00:41.470Z,6.40
2019-02-19T03:03:10.052Z,6.40
2019-02-19T03:05:40.249Z,6.40
2019-02-19T03:08:08.934Z,6.50
2019-02-19T03:10:37.497Z,6.60
2019-02-19T03:13:06.064Z,6.50
2019-02-19T03:15:34.648Z,6.50
2019-02-19T03:18:03.532Z,6.50
2019-02-19T03:20:32.194Z,6.50
2019-02-19T03:23:01.130Z,6.40
2019-02-19T03:25:29.684Z,6.40
2019-02-19T03:27:58.287Z,6.50
2019-02-19T03:30:26.865Z,6.50
2019-02-19T03:32:55.421Z,6.60
2019-02-19T03:35:23.988Z,6.40
2019-02-19T03:37:52.544Z,5.90
2019-02-19T03:40:21.120Z,5.60
2019-02-19T03:42:49.690Z,5.40
2019-02-19T03:45:18.256Z,5.30
2019-02-19T03:47:47.161Z,5.40
2019-02-19T03:50:16.017Z,5.40
2019-02-19T03:52:44.636Z,5.30
2019-02-19T03:55:13.197Z,5.40
2019-02-19T03:57:41.772Z,5.50
2019-02-19T04:00:10.659Z,5.10
2019-02-19T04:02:39.308Z,4.80
2019-02-19T04:05:08.104Z,4.60
2019-02-19T04:07:36.680Z,4.60
2019-02-19T04:10:07.678Z,4.50
2019-02-19T04:12:36.260Z,4.50
2019-02-19T04:15:06.603Z,4.50
2019-02-19T04:17:35.455Z,4.40
2019-02-19T04:20:05.049Z,4.40
2019-02-19T04:22:33.608Z,4.60
2019-02-19T04:25:02.189Z,4.70
2019-02-19T04:27:30.752Z,4.80
2019-02-19T04:29:59.332Z,4.90
2019-02-19T04:32:28.012Z,5.00
2019-02-19T04:34:56.647Z,5.10
2019-02-19T04:37:25.187Z,5.20
2019-02-19T04:39:53.788Z,5.20
2019-02-19T04:42:22.365Z,5.10
2019-02-19T04:44:50.912Z,5.00
2019-02-19T04:47:19.635Z,4.90
2019-02-19T04:49:48.188Z,4.80
2019-02-19T04:52:16.756Z,4.80
2019-02-19T04:54:45.654Z,4.80
2019-02-19T04:57:14.300Z,4.80
2019-02-19T04:59:43.124Z,4.80
2019-02-19T05:02:11.882Z,4.80
2019-02-19T05:04:40.598Z,4.80
2019-02-19T05:07:10.194Z,4.70
2019-02-19T05:09:38.823Z,4.70
2019-02-19T05:12:07.400Z,4.60
2019-02-19T05:14:35.952Z,4.80
2019-02-19T05:17:04.578Z,4.70
2019-02-19T05:19:33.154Z,4.70
2019-02-19T05:22:02.137Z,4.70
2019-02-19T05:24:32.842Z,4.70
2019-02-19T05:27:01.393Z,4.80
2019-02-19T05:29:30.011Z,4.70
2019-02-19T05:31:58.545Z,4.70
2019-02-19T05:34:27.156Z,4.60
2019-02-19T05:36:55.712Z,4.40
2019-02-19T05:39:24.271Z,4.40
2019-02-19T05:41:52.842Z,4.30
2019-02-19T05:44:21.395Z,4.40
2019-02-19T05:46:50.279Z,4.40
2019-02-19T05:49:18.841Z,4.40
2019-02-19T05:51:47.405Z,4.50
2019-02-19T05:54:16.006Z,4.40
2019-02-19T05:56:44.577Z,4.40
2019-02-19T05:59:13.133Z,4.40
2019-02-19T06:01:42.061Z,4.50
2019-02-19T06:04:10.617Z,4.50
2019-02-19T06:06:39.219Z,4.50
2019-02-19T06:09:07.781Z,4.50
2019-02-19T06:11:36.340Z,4.50
2019-02-19T06:14:04.988Z,4.40
2019-02-19T06:16:33.541Z,4.40
2019-02-19T06:19:02.426Z,4.40
2019-02-19T06:21:30.982Z,4.40
2019-02-19T06:23:59.554Z,4.40
2019-02-19T06:26:28.412Z,4.20
2019-02-19T06:28:57.880Z,3.90
2019-02-19T06:31:26.520Z,3.80
2019-02-19T06:33:55.092Z,3.70
2019-02-19T06:36:23.800Z,3.70
2019-02-19T06:38:52.746Z,3.80
2019-02-19T06:41:21.291Z,3.70
2019-02-19T06:43:49.992Z,3.50
2019-02-19T06:46:23.798Z,3.40
2019-02-19T06:48:52.370Z,3.40
2019-02-19T06:51:20.941Z,3.70
2019-02-19T06:53:49.516Z,4.20
2019-02-19T06:56:18.093Z,4.70
2019-02-19T06:58:46.647Z,5.10
2019-02-19T07:01:16.852Z,5.60
2019-02-19T07:03:47.050Z,6.10
2019-02-19T07:06:15.617Z,6.40
2019-02-19T07:08:44.172Z,6.50
2019-02-19T07:11:12.844Z,6.20
2019-02-19T07:13:41.508Z,6.20
2019-02-19T07:16:10.064Z,6.00
2019-02-19T07:18:38.638Z,5.90
2019-02-19T07:21:07.196Z,6.10
2019-02-19T07:23:36.096Z,6.70
2019-02-19T07:26:05.078Z,7.30
2019-02-19T07:28:33.717Z,7.90
2019-02-19T07:31:02.270Z,8.40
2019-02-19T07:33:30.870Z,8.40
2019-02-19T07:35:59.424Z,8.20
2019-02-19T07:38:28.078Z,7.80
2019-02-19T07:40:56.655Z,7.50
2019-02-19T07:43:25.205Z,7.50
2019-02-19T07:45:54.157Z,7.50
2019-02-19T07:48:22.757Z,7.70
2019-02-19T07:50:51.437Z,7.90
2019-02-19T07:53:20.000Z,7.70
2019-02-19T07:55:48.549Z,7.50
2019-02-19T07:58:17.127Z,7.30
2019-02-19T08:00:45.675Z,7.20
2019-02-19T08:03:14.264Z,7.30
2019-02-19T08:05:42.817Z,7.40
2019-02-19T08:08:11.388Z,7.60
2019-02-19T08:10:40.305Z,8.10
2019-02-19T08:13:08.873Z,9.00
2019-02-19T08:15:37.439Z,10.60
2019-02-19T08:18:06.028Z,11.50
2019-02-19T08:20:34.588Z,12.00
2019-02-19T08:23:03.144Z,13.10
2019-02-19T08:25:31.724Z,14.80
2019-02-19T08:28:00.272Z,16.00
2019-02-19T08:30:28.852Z,16.60
2019-02-19T08:32:57.482Z,17.30
2019-02-19T08:35:26.082Z,18.20
2019-02-19T08:37:54.642Z,17.60
2019-02-19T08:40:23.231Z,17.20
2019-02-19T08:42:51.846Z,17.20
2019-02-19T08:45:20.427Z,17.00
2019-02-19T08:47:49.101Z,17.20
2019-02-19T08:50:17.657Z,18.00
2019-02-19T08:52:46.384Z,18.40
2019-02-19T08:55:14.948Z,19.40
2019-02-19T08:57:43.922Z,19.30
2019-02-19T09:00:12.621Z,19.10
2019-02-19T09:02:41.209Z,19.90
2019-02-19T09:05:09.843Z,21.80
2019-02-19T09:07:38.416Z,22.20
2019-02-19T09:10:10.212Z,23.50
2019-02-19T09:12:38.797Z,24.20
2019-02-19T09:15:11.187Z,25.10
2019-02-19T09:17:40.478Z,25.70
2019-02-19T09:20:10.194Z,25.60
2019-02-19T09:22:39.152Z,23.50
2019-02-19T09:25:08.642Z,24.20
2019-02-19T09:27:37.641Z,24.90
2019-02-19T09:30:09.365Z,25.70
2019-02-19T09:32:37.924Z,27.90
2019-02-19T09:35:07.649Z,26.10
2019-02-19T09:37:36.209Z,25.10
2019-02-19T09:40:07.064Z,24.20
2019-02-19T09:42:35.908Z,23.20
2019-02-19T09:45:06.623Z,22.80
2019-02-19T09:47:35.221Z,22.10
2019-02-19T09:50:04.524Z,21.20
2019-02-19T09:52:33.108Z,19.80
2019-02-19T09:55:01.693Z,19.00
2019-02-19T09:57:30.390Z,18.30
2019-02-19T09:59:58.969Z,17.40
2019-02-19T10:02:27.545Z,16.90
2019-02-19T10:04:56.174Z,16.20
2019-02-19T10:07:24.754Z,15.70
2019-02-19T10:09:53.325Z,15.30
2019-02-19T10:12:21.904Z,15.20
2019-02-19T10:14:50.579Z,15.00
2019-02-19T10:17:19.151Z,14.80
2019-02-19T10:19:47.879Z,14.90
2019-02-19T10:22:16.436Z,14.80
2019-02-19T10:24:45.108Z,14.80
2019-02-19T10:27:13.668Z,15.20
2019-02-19T10:29:42.616Z,15.40
2019-02-19T10:32:11.186Z,15.80
2019-02-19T10:34:39.765Z,16.20
2019-02-19T10:37:08.326Z,16.20
2019-02-19T10:39:36.943Z,16.40
2019-02-19T10:42:05.486Z,17.10
2019-02-19T10:44:34.137Z,18.50
2019-02-19T10:47:02.746Z,20.30
2019-02-19T10:49:31.377Z,22.40
2019-02-19T10:51:59.944Z,23.60
2019-02-19T10:54:28.524Z,23.70
2019-02-19T10:56:57.528Z,24.00
2019-02-19T10:59:26.141Z,24.10
2019-02-19T11:01:54.824Z,23.50
2019-02-19T11:04:23.444Z,22.50
2019-02-19T11:06:52.025Z,21.70
2019-02-19T11:09:20.593Z,21.20
2019-02-19T11:11:49.151Z,20.90
2019-02-19T11:14:17.790Z,20.80
2019-02-19T11:16:46.437Z,21.40
2019-02-19T11:19:15.012Z,22.30
2019-02-19T11:21:43.568Z,23.90
2019-02-19T11:24:12.468Z,26.20
2019-02-19T11:26:41.020Z,28.10
2019-02-19T11:29:09.696Z,28.40
2019-02-19T11:31:38.253Z,29.20
2019-02-19T11:34:06.809Z,29.60
2019-02-19T11:36:35.452Z,29.20
2019-02-19T11:39:05.053Z,28.00
2019-02-19T11:41:33.628Z,26.80
2019-02-19T11:44:02.190Z,26.00
2019-02-19T11:46:31.053Z,26.00
2019-02-19T11:48:59.786Z,25.20
2019-02-19T11:51:28.731Z,24.10
2019-02-19T11:53:57.413Z,23.30
2019-02-19T11:56:25.972Z,22.70
2019-02-19T11:58:54.652Z,22.00
2019-02-19T12:01:23.220Z,21.10
2019-02-19T12:03:52.173Z,20.70
2019-02-19T12:06:20.729Z,20.50
2019-02-19T12:08:49.304Z,20.20
2019-02-19T12:11:17.870Z,20.00
2019-02-19T12:13:46.463Z,19.60
2019-02-19T12:16:15.048Z,19.70
2019-02-19T12:18:46.177Z,19.70
2019-02-19T12:21:13.941Z,19.40
2019-02-19T12:23:42.573Z,19.00
2019-02-19T12:26:11.152Z,18.70
2019-02-19T12:28:39.716Z,18.70
2019-02-19T12:31:08.365Z,18.80
2019-02-19T12:33:36.920Z,19.00
2019-02-19T12:36:05.504Z,19.00
2019-02-19T12:38:34.115Z,18.90
2019-02-19T12:41:02.710Z,18.70
2019-02-19T12:43:31.276Z,18.50
2019-02-19T12:45:59.872Z,18.40
2019-02-19T12:48:28.453Z,18.50
2019-02-19T12:50:57.009Z,18.30
2019-02-19T12:53:25.589Z,18.00
2019-02-19T12:55:54.494Z,17.90
2019-02-19T12:58:23.056Z,17.90
2019-02-19T13:00:51.689Z,17.70
2019-02-19T13:03:20.314Z,17.30
2019-02-19T13:09:30.267Z,16.90
2019-02-19T13:11:58.824Z,16.30
2019-02-19T13:14:27.403Z,16.10
2019-02-19T13:16:56.264Z,16.30
2019-02-19T13:20:13.486Z,16.40
2019-02-19T13:22:42.116Z,16.40
2019-02-19T13:25:12.041Z,16.20
2019-02-19T13:27:40.598Z,16.10
2019-02-19T13:30:17.197Z,15.90
2019-02-19T13:32:45.756Z,15.70
2019-02-19T13:35:14.554Z,15.30
2019-02-19T13:37:43.131Z,14.90
2019-02-19T13:40:19.412Z,14.80
2019-02-19T13:42:48.163Z,14.60
2019-02-19T13:45:16.967Z,14.40
2019-02-19T13:47:45.552Z,14.40
2019-02-19T13:50:31.723Z,14.40
2019-02-19T13:53:18.432Z,14.30
2019-02-19T13:55:54.905Z,14.10
2019-02-19T13:58:23.491Z,13.90
2019-02-19T14:00:52.047Z,13.70
2019-02-19T14:03:20.668Z,13.40
2019-02-19T14:05:49.340Z,13.20
2019-02-19T14:08:17.920Z,13.10
2019-02-19T14:10:46.619Z,13.00
2019-02-19T14:13:15.235Z,12.90
2019-02-19T14:15:45.409Z,12.90
2019-02-19T14:18:15.609Z,12.90
2019-02-19T14:20:51.405Z,12.90
2019-02-19T14:23:36.957Z,12.80
2019-02-19T14:26:25.393Z,12.70
2019-02-19T14:28:55.623Z,12.60
2019-02-19T14:31:31.809Z,12.60
2019-02-19T14:34:14.453Z,12.60
2019-02-19T14:36:44.728Z,12.40
2019-02-19T14:39:14.947Z,12.40
2019-02-19T14:41:45.150Z,12.30
2019-02-19T14:44:15.408Z,12.20
2019-02-19T14:47:02.133Z,12.20
2019-02-19T14:49:37.510Z,12.00
2019-02-19T14:52:25.032Z,12.00
2019-02-19T14:54:55.254Z,11.90
2019-02-19T14:57:37.741Z,11.70
2019-02-19T15:00:25.128Z,11.70
2019-02-19T15:03:00.970Z,11.70
2019-02-19T15:05:49.460Z,11.80
2019-02-19T15:08:25.396Z,11.80
2019-02-19T15:10:58.561Z,11.60
2019-02-19T15:13:43.500Z,11.60
2019-02-19T15:16:13.725Z,11.50
2019-02-19T15:18:52.567Z,11.40
2019-02-19T15:21:31.748Z,11.40
2019-02-19T15:24:01.954Z,11.50
2019-02-19T15:26:35.079Z,11.60
2019-02-19T15:29:08.172Z,11.50
2019-02-19T15:31:41.572Z,11.50
2019-02-19T15:34:27.917Z,11.40
2019-02-19T15:36:58.139Z,11.40
2019-02-19T15:39:37.360Z,11.50
2019-02-19T15:42:23.615Z,11.40
2019-02-19T15:44:53.811Z,11.40
2019-02-19T15:47:24.039Z,11.30
2019-02-19T15:50:09.672Z,11.20
2019-02-19T15:52:58.004Z,11.30
2019-02-19T15:55:28.208Z,11.30
2019-02-19T15:58:14.587Z,11.10
2019-02-19T16:00:47.624Z,11.10
2019-02-19T16:03:17.863Z,11.00
2019-02-19T16:05:48.046Z,11.00
2019-02-19T16:08:21.232Z,11.00
2019-02-19T16:11:03.626Z,10.90
2019-02-19T16:13:40.336Z,10.90
2019-02-19T16:16:19.681Z,10.90
2019-02-19T16:18:52.973Z,10.80
2019-02-19T16:21:26.760Z,10.80
2019-02-19T16:23:59.961Z,10.70
2019-02-19T16:26:46.783Z,10.80
2019-02-19T16:29:19.804Z,10.70
2019-02-19T16:32:06.791Z,10.60
2019-02-19T16:34:37.051Z,10.50
2019-02-19T16:37:10.238Z,10.60
2019-02-19T16:39:43.433Z,10.60
2019-02-19T16:42:16.489Z,10.50
2019-02-19T16:44:46.691Z,10.30
2019-02-19T16:47:23.292Z,10.40
2019-02-19T16:49:53.729Z,10.30
2019-02-19T16:52:32.921Z,10.30
2019-02-19T16:55:21.148Z,10.30
2019-02-19T16:57:57.464Z,10.30
2019-02-19T17:00:33.653Z,10.30
2019-02-19T17:03:03.949Z,10.40
2019-02-19T17:05:34.202Z,10.30
2019-02-19T17:08:12.891Z,10.20
2019-02-19T17:10:49.268Z,10.20
2019-02-19T17:13:36.237Z,10.20
2019-02-19T17:16:18.541Z,10.20
2019-02-19T17:18:51.868Z,10.20
2019-02-19T17:21:22.415Z,10.10
2019-02-19T17:24:11.344Z,10.10
2019-02-19T17:26:44.100Z,10.10
2019-02-19T17:29:22.920Z,10.00
2019-02-19T17:31:53.485Z,10.00
2019-02-19T17:34:24.112Z,10.00
2019-02-19T17:37:03.625Z,10.00
2019-02-19T17:39:36.835Z,9.90
2019-02-19T17:42:09.756Z,9.90
2019-02-19T17:44:56.476Z,9.90
2019-02-19T17:47:32.683Z,9.80
2019-02-19T17:50:15.192Z,9.90
2019-02-19T17:52:54.711Z,9.90
2019-02-19T17:55:30.998Z,9.80
2019-02-19T17:58:09.815Z,9.80
2019-02-19T18:00:45.776Z,9.70
2019-02-19T18:03:15.979Z,9.60
2019-02-19T18:05:46.205Z,9.60
2019-02-19T18:08:33.092Z,9.60
2019-02-19T18:11:19.874Z,9.60
2019-02-19T18:13:50.053Z,9.60
2019-02-19T18:16:23.254Z,9.50
2019-02-19T18:18:52.337Z,9.50
2019-02-19T18:21:20.869Z,9.50
2019-02-19T18:23:49.428Z,9.50
2019-02-19T18:26:18.055Z,9.50
2019-02-19T18:28:46.632Z,9.50
2019-02-19T18:31:15.261Z,9.50
2019-02-19T18:33:43.840Z,9.50
2019-02-19T18:36:12.960Z,9.50
2019-02-19T18:38:41.552Z,9.40
2019-02-19T18:41:10.112Z,9.40
2019-02-19T18:43:39.347Z,9.50
2019-02-19T18:46:07.903Z,9.50
2019-02-19T18:48:36.457Z,9.50
2019-02-19T18:51:05.104Z,9.50
2019-02-19T18:53:33.664Z,9.50
2019-02-19T18:56:02.597Z,9.50
2019-02-19T18:58:31.239Z,9.50
2019-02-19T19:00:59.983Z,9.50
2019-02-19T19:03:28.557Z,9.50
2019-02-19T19:05:57.385Z,9.50
2019-02-19T19:08:25.952Z,9.40
2019-02-19T19:10:54.515Z,9.40
2019-02-19T19:13:23.192Z,9.30
2019-02-19T19:15:51.801Z,9.30
2019-02-19T19:18:20.359Z,9.30
2019-02-19T19:20:48.912Z,9.30
2019-02-19T19:23:17.489Z,9.20
2019-02-19T19:25:46.416Z,9.30
2019-02-19T19:28:14.995Z,9.20
2019-02-19T19:30:43.561Z,9.30
2019-02-19T19:33:12.452Z,9.20
2019-02-19T19:35:41.000Z,9.30
2019-02-19T19:38:09.648Z,9.20
2019-02-19T19:40:38.539Z,9.20
2019-02-19T19:43:08.317Z,9.30
2019-02-19T19:45:36.881Z,9.20
2019-02-19T19:48:05.439Z,9.20
2019-02-19T19:50:34.009Z,9.20
2019-02-19T19:53:02.591Z,9.20
2019-02-19T19:55:31.173Z,9.20
2019-02-19T19:57:59.732Z,9.20
2019-02-19T20:00:28.315Z,9.10
2019-02-19T20:02:57.156Z,9.20
2019-02-19T20:05:25.753Z,9.10
2019-02-19T20:07:54.303Z,9.20
2019-02-19T20:10:22.916Z,9.10
2019-02-19T20:12:51.484Z,9.10
2019-02-19T20:15:20.145Z,9.10
2019-02-19T20:17:48.705Z,9.10
2019-02-19T20:20:17.701Z,9.00
2019-02-19T20:22:46.305Z,9.00
2019-02-19T20:25:14.924Z,9.10
2019-02-19T20:27:43.613Z,9.10
2019-02-19T20:30:15.968Z,9.10
2019-02-19T20:32:44.681Z,9.10
2019-02-19T20:35:13.240Z,9.20
2019-02-19T20:37:41.832Z,9.10
2019-02-19T20:40:11.833Z,9.10
2019-02-19T20:42:40.821Z,9.10
2019-02-19T20:45:11.581Z,9.00
2019-02-19T20:47:40.165Z,9.10
2019-02-19T20:50:11.538Z,9.10
2019-02-19T20:52:40.201Z,9.00
2019-02-19T20:55:10.698Z,8.90
2019-02-19T20:57:39.253Z,8.90
2019-02-19T21:00:17.853Z,8.90
2019-02-19T21:02:46.412Z,8.90
2019-02-19T21:05:15.125Z,8.80
2019-02-19T21:07:43.750Z,8.80
2019-02-19T21:10:16.901Z,8.80
2019-02-19T21:12:45.547Z,8.90
2019-02-19T21:15:14.648Z,8.80
2019-02-19T21:17:43.306Z,8.80
2019-02-19T21:20:12.543Z,8.70
2019-02-19T21:22:41.105Z,8.80
2019-02-19T21:25:11.006Z,8.80
2019-02-19T21:27:42.724Z,8.80
2019-02-19T21:30:13.522Z,8.70
2019-02-19T21:32:42.361Z,8.70
2019-02-19T21:35:11.100Z,8.70
2019-02-19T21:37:39.708Z,8.70
2019-02-19T21:40:13.133Z,8.70
2019-02-19T21:42:41.805Z,8.60
2019-02-19T21:45:12.113Z,8.70
2019-02-19T21:47:40.682Z,8.60
2019-02-19T21:50:11.350Z,8.60
2019-02-19T21:52:40.232Z,8.60
2019-02-19T21:55:11.008Z,8.60
2019-02-19T21:57:39.652Z,8.50
2019-02-19T22:00:20.904Z,8.60
2019-02-19T22:02:49.548Z,8.50
2019-02-19T22:05:18.173Z,8.50
2019-02-19T22:07:46.744Z,8.40
2019-02-19T22:10:15.642Z,8.30
2019-02-19T22:12:44.227Z,8.40
2019-02-19T22:15:13.908Z,8.30
2019-02-19T22:17:42.500Z,8.30
2019-02-19T22:20:20.672Z,8.30
2019-02-19T22:22:49.560Z,8.30
2019-02-19T22:25:18.116Z,8.20
2019-02-19T22:27:46.672Z,8.20
2019-02-19T22:30:15.583Z,8.10
2019-02-19T22:32:44.168Z,8.10
2019-02-19T22:35:12.747Z,8.10
2019-02-19T22:37:41.641Z,8.10
2019-02-19T22:40:10.280Z,8.10
2019-02-19T22:42:38.835Z,8.10
2019-02-19T22:45:09.349Z,8.00
2019-02-19T22:47:38.230Z,7.90
2019-02-19T22:50:08.948Z,7.90
2019-02-19T22:52:37.618Z,7.90
2019-02-19T22:55:18.799Z,7.90
2019-02-19T22:57:47.421Z,7.80
2019-02-19T23:00:48.000Z,7.70
2019-02-19T23:03:18.263Z,7.60
2019-02-19T23:05:46.987Z,7.50
2019-02-19T23:08:15.559Z,7.30
2019-02-19T23:10:44.115Z,7.30
2019-02-19T23:13:12.748Z,7.10
2019-02-19T23:15:41.349Z,7.00
2019-02-19T23:18:09.885Z,7.00
2019-02-19T23:20:38.437Z,7.10
2019-02-19T23:23:07.110Z,7.10
2019-02-19T23:25:35.632Z,7.20
2019-02-19T23:28:04.265Z,7.20
2019-02-19T23:30:33.719Z,7.20
2019-02-19T23:33:02.685Z,7.30
2019-02-19T23:35:33.214Z,7.20
2019-02-19T23:38:01.809Z,7.00
2019-02-19T23:40:30.363Z,6.80
2019-02-19T23:42:59.029Z,6.90
2019-02-19T23:45:27.619Z,6.70
2019-02-19T23:47:56.176Z,6.60
2019-02-19T23:50:24.752Z,6.50
2019-02-19T23:52:53.309Z,6.50
2019-02-19T23:55:21.882Z,6.50
2019-02-19T23:57:50.551Z,6.50
